Time;durP1;ratioP1;P1;durP2;ratioP2;P2;SDS_P1;SDS_P2;PMS_P1;PMS_P2;Temp;Humidity;BMP_temperature;BMP_pressure;BME280_temperature;BME280_humidity;BME280_pressure;Samples;Min_cycle;Max_cycle;Signal;HPM_P1;HPM_P2
2022/01/15 00:01:25;;;;;;;80.22;18.40;;;;;;;;;;5117016;28;20226;-67
2022/01/15 00:03:52;;;;;;;80.25;18.15;;;;;;;;;;5116289;28;20227;-67
2022/01/15 00:06:19;;;;;;;81.63;17.05;;;;;;;;;;5116440;28;20295;-67
2022/01/15 00:08:46;;;;;;;88.55;18.05;;;;;;;;;;5115939;28;20220;-67
2022/01/15 00:11:13;;;;;;;79.88;17.17;;;;;;;;;;5116040;28;20235;-67
2022/01/15 00:13:43;;;;;;;82.80;17.60;;;;;;;;;;5116054;27;20599;-67
2022/01/15 00:16:24;;;;;;;86.13;17.60;;;;;;;;;;5115784;28;20210;-67
2022/01/15 00:19:04;;;;;;;83.25;19.30;;;;;;;;;;5115391;28;20806;-67
2022/01/15 00:21:31;;;;;;;78.88;16.77;;;;;;;;;;5115873;28;20227;-67
2022/01/15 00:23:59;;;;;;;79.80;16.88;;;;;;;;;;5115471;28;20223;-67
2022/01/15 00:26:26;;;;;;;81.18;16.65;;;;;;;;;;5115727;28;20299;-67
2022/01/15 00:28:53;;;;;;;83.03;18.33;;;;;;;;;;5113326;28;20216;-67
2022/01/15 00:31:22;;;;;;;82.75;16.38;;;;;;;;;;5115802;28;20774;-67
2022/01/15 00:33:49;;;;;;;81.35;17.70;;;;;;;;;;5116319;28;20211;-67
2022/01/15 00:36:17;;;;;;;78.07;18.02;;;;;;;;;;5116823;28;20558;-67
2022/01/15 00:38:44;;;;;;;81.93;19.55;;;;;;;;;;5117224;28;20754;-67
2022/01/15 00:41:12;;;;;;;79.47;17.75;;;;;;;;;;5118464;28;20212;-66
2022/01/15 00:43:40;;;;;;;78.38;17.05;;;;;;;;;;5118636;28;20227;-67
2022/01/15 00:46:07;;;;;;;79.78;18.83;;;;;;;;;;5115831;28;20200;-66
2022/01/15 00:48:36;;;;;;;78.35;18.55;;;;;;;;;;5116056;28;20230;-66
2022/01/15 00:51:04;;;;;;;84.88;18.77;;;;;;;;;;5116131;28;20211;-66
2022/01/15 00:53:31;;;;;;;92.70;17.83;;;;;;;;;;5115926;28;20291;-66
2022/01/15 00:55:58;;;;;;;79.93;18.17;;;;;;;;;;5116311;28;20211;-66
2022/01/15 00:58:25;;;;;;;80.20;18.23;;;;;;;;;;5115987;28;20577;-67
2022/01/15 01:00:53;;;;;;;82.75;17.98;;;;;;;;;;5109912;28;20616;-67
2022/01/15 01:03:20;;;;;;;77.57;17.15;;;;;;;;;;5094898;28;20228;-67
2022/01/15 01:05:48;;;;;;;82.57;19.55;;;;;;;;;;5094022;28;20266;-67
2022/01/15 01:08:15;;;;;;;80.68;16.48;;;;;;;;;;5094484;28;20651;-67
2022/01/15 01:10:53;;;;;;;78.85;17.98;;;;;;;;;;5095042;28;20200;-67
2022/01/15 01:13:43;;;;;;;74.40;17.10;;;;;;;;;;5094909;28;20240;-67
2022/01/15 01:24:27;;;;;;;80.80;17.52;;;;;;;;;;5087137;28;20705;-67
2022/01/15 01:26:58;;;;;;;79.60;17.70;;;;;;;;;;5094641;28;20205;-67
2022/01/15 01:29:35;;;;;;;84.40;16.88;;;;;;;;;;5094464;28;20205;-67
2022/01/15 01:32:07;;;;;;;78.28;16.98;;;;;;;;;;5094671;28;20225;-67
2022/01/15 01:34:37;;;;;;;75.82;17.67;;;;;;;;;;5115055;28;20196;-67
2022/01/15 01:37:12;;;;;;;82.15;18.23;;;;;;;;;;5114551;28;20299;-67
2022/01/15 01:39:44;;;;;;;80.40;16.70;;;;;;;;;;5115516;28;20204;-67
2022/01/15 01:42:31;;;;;;;80.43;16.85;;;;;;;;;;5115615;28;20232;-67
2022/01/15 01:45:00;;;;;;;78.20;16.95;;;;;;;;;;5114958;28;20220;-67
2022/01/15 01:47:39;;;;;;;80.60;17.95;;;;;;;;;;5114324;28;20204;-67
2022/01/15 01:50:07;;;;;;;80.10;17.40;;;;;;;;;;5114723;28;20310;-67
2022/01/15 01:52:35;;;;;;;80.05;17.13;;;;;;;;;;5114460;28;20312;-67
2022/01/15 01:55:03;;;;;;;84.03;16.48;;;;;;;;;;5114195;28;20308;-67
2022/01/15 01:57:30;;;;;;;79.07;15.60;;;;;;;;;;5114286;28;20209;-67
2022/01/15 01:59:57;;;;;;;80.85;17.08;;;;;;;;;;5115129;28;20300;-66
2022/01/15 02:02:24;;;;;;;80.25;17.65;;;;;;;;;;5118925;28;20750;-67
2022/01/15 02:04:51;;;;;;;78.72;18.65;;;;;;;;;;5119602;28;20262;-67
2022/01/15 02:07:19;;;;;;;82.75;16.98;;;;;;;;;;5120866;28;20272;-67
2022/01/15 02:09:47;;;;;;;79.07;16.13;;;;;;;;;;5123140;28;20250;-67
2022/01/15 02:12:14;;;;;;;77.03;16.65;;;;;;;;;;5123126;28;20665;-67
2022/01/15 02:14:41;;;;;;;85.47;17.60;;;;;;;;;;5123582;28;20684;-67
2022/01/15 02:17:11;;;;;;;79.70;17.15;;;;;;;;;;5121877;28;20239;-67
2022/01/15 02:19:56;;;;;;;81.63;16.98;;;;;;;;;;5128393;28;20208;-67
2022/01/15 02:25:08;;;;;;;82.97;16.90;;;;;;;;;;5127268;28;20251;-67
2022/01/15 02:27:36;;;;;;;75.68;15.75;;;;;;;;;;5128228;28;20273;-66
2022/01/15 02:30:04;;;;;;;81.50;17.15;;;;;;;;;;5115126;28;20208;-66
2022/01/15 02:32:32;;;;;;;77.65;15.85;;;;;;;;;;5113242;28;20228;-66
2022/01/15 02:35:01;;;;;;;79.63;16.98;;;;;;;;;;5120834;28;20577;-67
2022/01/15 02:37:30;;;;;;;77.80;16.73;;;;;;;;;;5106380;28;20209;-67
2022/01/15 02:39:57;;;;;;;77.95;16.67;;;;;;;;;;5108390;28;20208;-67
2022/01/15 02:42:27;;;;;;;77.80;16.92;;;;;;;;;;5108076;28;20292;-66
2022/01/15 02:45:00;;;;;;;75.75;17.35;;;;;;;;;;5100996;28;20362;-66
2022/01/15 02:50:13;;;;;;;81.07;16.23;;;;;;;;;;5094913;28;20788;-66
2022/01/15 02:52:40;;;;;;;87.85;17.70;;;;;;;;;;5112545;28;20252;-66
2022/01/15 02:55:08;;;;;;;79.97;14.70;;;;;;;;;;5112559;28;20287;-67
2022/01/15 02:57:35;;;;;;;77.30;16.67;;;;;;;;;;5112361;28;20207;-66
2022/01/15 03:00:02;;;;;;;83.97;16.95;;;;;;;;;;5112856;28;20226;-67
2022/01/15 03:02:33;;;;;;;78.93;15.65;;;;;;;;;;5112494;28;20220;-67
2022/01/15 03:05:00;;;;;;;75.38;15.70;;;;;;;;;;5112644;28;20224;-66
2022/01/15 03:07:28;;;;;;;81.80;15.75;;;;;;;;;;5110359;28;20227;-66
2022/01/15 03:09:56;;;;;;;82.13;15.73;;;;;;;;;;5112376;28;20210;-67
2022/01/15 03:12:23;;;;;;;78.07;16.02;;;;;;;;;;5112189;28;20742;-67
2022/01/15 03:14:54;;;;;;;74.57;14.88;;;;;;;;;;5112121;28;20207;-67
2022/01/15 03:17:22;;;;;;;76.15;15.20;;;;;;;;;;5112310;28;20207;-66
2022/01/15 03:19:49;;;;;;;80.18;17.00;;;;;;;;;;5112491;28;20321;-66
2022/01/15 03:22:16;;;;;;;77.30;15.70;;;;;;;;;;5112190;28;20259;-67
2022/01/15 03:24:45;;;;;;;74.25;14.02;;;;;;;;;;5112333;28;20246;-66
2022/01/15 03:27:12;;;;;;;74.90;14.48;;;;;;;;;;5111935;28;20639;-67
2022/01/15 03:29:39;;;;;;;76.88;14.05;;;;;;;;;;5111739;28;20303;-67
2022/01/15 03:32:07;;;;;;;77.82;15.02;;;;;;;;;;5112244;28;20220;-67
2022/01/15 03:34:34;;;;;;;78.30;14.48;;;;;;;;;;5112199;28;20210;-67
2022/01/15 03:37:02;;;;;;;75.75;14.40;;;;;;;;;;5112245;28;20214;-67
2022/01/15 03:39:29;;;;;;;80.95;15.10;;;;;;;;;;5099314;28;20214;-67
2022/01/15 03:41:57;;;;;;;79.75;15.45;;;;;;;;;;5092060;28;20316;-67
2022/01/15 03:44:24;;;;;;;74.78;14.52;;;;;;;;;;5091715;28;20220;-67
2022/01/15 03:46:51;;;;;;;73.50;14.60;;;;;;;;;;5091583;28;20212;-68
2022/01/15 03:49:19;;;;;;;77.63;15.85;;;;;;;;;;5091575;28;20209;-68
2022/01/15 03:51:46;;;;;;;79.30;16.50;;;;;;;;;;5091626;28;20358;-67
2022/01/15 03:54:13;;;;;;;79.82;14.90;;;;;;;;;;5091407;28;20300;-68
2022/01/15 03:56:40;;;;;;;75.50;13.95;;;;;;;;;;5091708;28;20304;-68
2022/01/15 03:59:09;;;;;;;73.40;14.43;;;;;;;;;;5091529;28;20209;-67
2022/01/15 04:01:36;;;;;;;74.57;14.73;;;;;;;;;;5091494;28;20228;-68
2022/01/15 04:04:03;;;;;;;73.10;14.43;;;;;;;;;;5091493;28;20231;-67
2022/01/15 04:06:30;;;;;;;75.65;14.73;;;;;;;;;;5091534;28;20563;-67
2022/01/15 04:08:58;;;;;;;73.43;13.90;;;;;;;;;;5090890;28;20213;-67
2022/01/15 04:11:25;;;;;;;74.40;14.05;;;;;;;;;;5101356;28;20235;-67
2022/01/15 04:13:52;;;;;;;73.82;14.13;;;;;;;;;;5111931;28;20641;-67
2022/01/15 04:16:21;;;;;;;74.93;15.20;;;;;;;;;;5111988;28;20203;-67
2022/01/15 04:18:48;;;;;;;77.32;15.25;;;;;;;;;;5111525;28;20211;-67
2022/01/15 04:21:15;;;;;;;71.13;13.45;;;;;;;;;;5112150;28;20206;-67
2022/01/15 04:23:42;;;;;;;75.55;13.52;;;;;;;;;;5111469;28;20208;-67
2022/01/15 04:26:09;;;;;;;78.07;14.00;;;;;;;;;;5111597;28;20224;-67
2022/01/15 04:28:37;;;;;;;74.60;12.85;;;;;;;;;;5111534;28;20200;-68
2022/01/15 04:31:06;;;;;;;73.60;12.68;;;;;;;;;;5111547;28;20300;-67
2022/01/15 04:33:36;;;;;;;74.40;12.90;;;;;;;;;;5111539;28;20565;-67
2022/01/15 04:36:04;;;;;;;80.68;14.05;;;;;;;;;;5111965;28;20211;-67
2022/01/15 04:38:33;;;;;;;75.93;14.18;;;;;;;;;;5111432;28;20296;-67
2022/01/15 04:41:01;;;;;;;73.22;12.30;;;;;;;;;;5112803;28;20678;-67
2022/01/15 04:43:28;;;;;;;73.72;13.27;;;;;;;;;;5113036;27;20744;-67
2022/01/15 04:45:55;;;;;;;74.00;13.60;;;;;;;;;;5114995;28;20225;-67
2022/01/15 04:48:22;;;;;;;67.95;11.35;;;;;;;;;;5114658;28;20207;-67
2022/01/15 04:50:51;;;;;;;77.20;13.55;;;;;;;;;;5114755;28;20771;-67
2022/01/15 04:53:18;;;;;;;73.75;13.73;;;;;;;;;;5114941;28;20226;-67
2022/01/15 04:55:45;;;;;;;74.03;13.40;;;;;;;;;;5115075;27;20295;-67
2022/01/15 04:58:12;;;;;;;72.38;14.43;;;;;;;;;;5114993;28;20227;-67
2022/01/15 05:00:39;;;;;;;78.18;14.32;;;;;;;;;;5115152;28;20222;-67
2022/01/15 05:03:07;;;;;;;76.20;14.50;;;;;;;;;;5114762;28;20267;-67
2022/01/15 05:05:34;;;;;;;75.35;15.18;;;;;;;;;;5114823;28;20224;-67
2022/01/15 05:08:04;;;;;;;74.38;14.90;;;;;;;;;;5114657;28;20579;-67
2022/01/15 05:10:31;;;;;;;86.72;15.70;;;;;;;;;;5114738;28;20204;-67
2022/01/15 05:13:01;;;;;;;76.65;14.88;;;;;;;;;;5112055;28;20224;-67
2022/01/15 05:15:28;;;;;;;80.80;15.10;;;;;;;;;;5114380;28;20699;-68
2022/01/15 05:17:55;;;;;;;75.18;13.73;;;;;;;;;;5114083;28;20298;-68
2022/01/15 05:20:22;;;;;;;79.95;15.15;;;;;;;;;;5114418;28;20208;-68
2022/01/15 05:22:50;;;;;;;78.82;15.35;;;;;;;;;;5114313;28;20232;-68
2022/01/15 05:25:19;;;;;;;74.78;14.02;;;;;;;;;;5114566;28;20231;-68
2022/01/15 05:27:46;;;;;;;86.63;14.52;;;;;;;;;;5114066;28;20208;-68
2022/01/15 05:30:14;;;;;;;74.32;13.88;;;;;;;;;;5114018;28;20707;-68
2022/01/15 05:32:41;;;;;;;81.80;16.52;;;;;;;;;;5118548;28;20238;-68
2022/01/15 05:35:09;;;;;;;74.15;14.75;;;;;;;;;;5126510;27;20232;-68
2022/01/15 05:37:36;;;;;;;76.75;14.27;;;;;;;;;;5127733;28;20231;-68
2022/01/15 05:40:04;;;;;;;74.50;13.75;;;;;;;;;;5127929;28;20208;-67
2022/01/15 05:42:33;;;;;;;76.18;13.55;;;;;;;;;;5127832;28;20247;-67
2022/01/15 05:45:00;;;;;;;75.00;13.60;;;;;;;;;;5126151;28;20252;-67
2022/01/15 05:47:27;;;;;;;72.75;13.25;;;;;;;;;;5127394;28;20564;-67
2022/01/15 05:49:54;;;;;;;73.45;13.13;;;;;;;;;;5128069;28;20200;-67
2022/01/15 05:52:21;;;;;;;73.78;13.60;;;;;;;;;;5127924;28;20296;-67
2022/01/15 05:54:49;;;;;;;73.28;13.70;;;;;;;;;;5127462;28;20202;-67
2022/01/15 05:57:16;;;;;;;77.53;14.55;;;;;;;;;;5126527;28;20287;-67
2022/01/15 05:59:44;;;;;;;77.70;14.07;;;;;;;;;;5127040;28;20239;-67
2022/01/15 06:02:12;;;;;;;73.32;14.02;;;;;;;;;;5127383;28;20247;-67
2022/01/15 06:04:39;;;;;;;76.53;14.90;;;;;;;;;;5126652;28;20296;-67
2022/01/15 06:07:06;;;;;;;76.82;14.98;;;;;;;;;;5126905;28;20664;-66
2022/01/15 06:09:33;;;;;;;74.50;14.13;;;;;;;;;;5126543;28;20227;-66
2022/01/15 06:12:01;;;;;;;76.10;13.52;;;;;;;;;;5117342;28;20267;-67
2022/01/15 06:14:29;;;;;;;76.18;14.70;;;;;;;;;;5115195;28;20647;-67
2022/01/15 06:16:58;;;;;;;74.85;15.52;;;;;;;;;;5112560;28;20575;-67
2022/01/15 06:19:25;;;;;;;80.60;16.73;;;;;;;;;;5113975;28;20204;-67
2022/01/15 06:21:52;;;;;;;74.85;14.95;;;;;;;;;;5114214;28;20246;-68
2022/01/15 06:24:20;;;;;;;76.65;15.63;;;;;;;;;;5113799;28;20239;-67
2022/01/15 06:26:47;;;;;;;82.35;16.77;;;;;;;;;;5113945;28;20224;-67
2022/01/15 06:29:14;;;;;;;78.97;14.82;;;;;;;;;;5113623;28;20292;-67
2022/01/15 06:31:41;;;;;;;75.70;15.23;;;;;;;;;;5114222;28;20225;-67
2022/01/15 06:34:10;;;;;;;77.72;16.65;;;;;;;;;;5114089;28;20668;-67
2022/01/15 06:36:37;;;;;;;82.32;18.75;;;;;;;;;;5113820;28;20204;-67
2022/01/15 06:39:04;;;;;;;95.55;23.45;;;;;;;;;;5112808;28;20215;-67
2022/01/15 06:41:32;;;;;;;99.05;27.35;;;;;;;;;;5113406;28;20500;-67
2022/01/15 06:43:59;;;;;;;104.25;31.40;;;;;;;;;;5113400;28;20291;-67
2022/01/15 06:46:26;;;;;;;114.18;31.95;;;;;;;;;;5111773;28;20230;-67
2022/01/15 06:48:53;;;;;;;89.38;23.65;;;;;;;;;;5111945;28;20200;-67
2022/01/15 06:51:24;;;;;;;92.47;24.27;;;;;;;;;;5113095;28;20215;-67
2022/01/15 06:53:51;;;;;;;87.63;21.27;;;;;;;;;;5112585;28;20665;-67
2022/01/15 06:56:18;;;;;;;84.45;19.38;;;;;;;;;;5112981;28;20205;-67
2022/01/15 06:58:46;;;;;;;94.18;20.05;;;;;;;;;;5112474;28;20299;-67
2022/01/15 07:01:13;;;;;;;79.22;17.13;;;;;;;;;;5113004;28;20201;-67
2022/01/15 07:03:40;;;;;;;79.53;16.10;;;;;;;;;;5112484;28;20300;-67
2022/01/15 07:06:07;;;;;;;81.40;17.63;;;;;;;;;;5112592;28;20270;-67
2022/01/15 07:08:36;;;;;;;76.10;15.82;;;;;;;;;;5112244;28;20219;-67
2022/01/15 07:11:03;;;;;;;80.15;18.42;;;;;;;;;;5112458;28;20210;-67
2022/01/15 07:13:30;;;;;;;79.30;17.50;;;;;;;;;;5112400;28;20295;-67
2022/01/15 07:15:57;;;;;;;84.03;17.33;;;;;;;;;;5112386;28;20214;-67
2022/01/15 07:18:24;;;;;;;83.43;18.88;;;;;;;;;;5109991;28;20204;-67
2022/01/15 07:20:52;;;;;;;85.05;19.92;;;;;;;;;;5091811;28;20562;-67
2022/01/15 07:23:19;;;;;;;77.13;15.00;;;;;;;;;;5092039;28;20224;-67
2022/01/15 07:25:47;;;;;;;83.85;18.75;;;;;;;;;;5092058;28;20315;-67
2022/01/15 07:28:15;;;;;;;87.75;20.23;;;;;;;;;;5091716;28;20748;-67
2022/01/15 07:30:42;;;;;;;135.18;35.72;;;;;;;;;;5091921;28;20209;-67
2022/01/15 07:33:09;;;;;;;123.15;34.92;;;;;;;;;;5091485;28;20271;-67
2022/01/15 07:35:36;;;;;;;103.40;26.40;;;;;;;;;;5092002;28;20288;-67
2022/01/15 07:38:03;;;;;;;98.72;28.50;;;;;;;;;;5091689;28;20303;-67
2022/01/15 07:40:30;;;;;;;95.38;24.77;;;;;;;;;;5091876;28;20296;-67
2022/01/15 07:42:59;;;;;;;90.35;21.38;;;;;;;;;;5091612;28;20221;-67
2022/01/15 07:45:26;;;;;;;84.05;21.63;;;;;;;;;;5091640;28;20315;-67
2022/01/15 07:47:53;;;;;;;89.78;23.40;;;;;;;;;;5091302;28;20211;-67
2022/01/15 07:50:23;;;;;;;92.43;21.17;;;;;;;;;;5090870;28;20673;-67
2022/01/15 07:52:51;;;;;;;87.72;18.63;;;;;;;;;;5091319;28;20233;-67
2022/01/15 07:55:18;;;;;;;85.30;19.42;;;;;;;;;;5091800;28;20205;-67
2022/01/15 07:57:45;;;;;;;83.78;17.58;;;;;;;;;;5091325;28;20216;-67
2022/01/15 08:00:14;;;;;;;91.05;24.35;;;;;;;;;;5091582;28;20692;-67
2022/01/15 08:02:42;;;;;;;94.57;19.70;;;;;;;;;;5091629;28;20708;-67
2022/01/15 08:05:10;;;;;;;82.90;17.60;;;;;;;;;;5091867;28;20227;-67
2022/01/15 08:07:37;;;;;;;77.35;17.45;;;;;;;;;;5091123;28;20223;-67
2022/01/15 08:10:06;;;;;;;83.20;19.00;;;;;;;;;;5091672;28;20201;-67
2022/01/15 08:12:33;;;;;;;79.78;18.45;;;;;;;;;;5091333;28;20282;-67
2022/01/15 08:15:00;;;;;;;75.05;15.23;;;;;;;;;;5093074;28;20748;-67
2022/01/15 08:17:30;;;;;;;79.60;18.02;;;;;;;;;;5095371;28;20208;-67
2022/01/15 08:19:57;;;;;;;80.85;19.80;;;;;;;;;;5095798;28;20205;-67
2022/01/15 08:22:24;;;;;;;83.45;18.50;;;;;;;;;;5095215;28;20259;-67
2022/01/15 08:24:51;;;;;;;79.18;16.17;;;;;;;;;;5095250;28;20200;-67
2022/01/15 08:27:18;;;;;;;80.30;18.67;;;;;;;;;;5094589;28;20225;-67
2022/01/15 08:29:45;;;;;;;77.93;17.40;;;;;;;;;;5095441;28;20555;-67
2022/01/15 08:32:12;;;;;;;77.57;15.43;;;;;;;;;;5108243;28;20675;-66
2022/01/15 08:34:43;;;;;;;81.60;17.85;;;;;;;;;;5115201;28;20200;-66
2022/01/15 08:37:10;;;;;;;86.18;18.00;;;;;;;;;;5113048;28;20672;-66
2022/01/15 08:39:37;;;;;;;76.30;16.50;;;;;;;;;;5115310;28;20584;-66
2022/01/15 08:42:06;;;;;;;77.35;16.05;;;;;;;;;;5114909;28;20667;-66
2022/01/15 08:44:34;;;;;;;77.90;17.40;;;;;;;;;;5115129;28;20208;-66
2022/01/15 08:47:02;;;;;;;74.90;15.77;;;;;;;;;;5114983;28;20314;-66
2022/01/15 08:49:29;;;;;;;82.38;18.23;;;;;;;;;;5114785;28;20663;-66
2022/01/15 08:51:58;;;;;;;76.18;16.20;;;;;;;;;;5114768;28;20262;-66
2022/01/15 08:54:25;;;;;;;76.20;15.85;;;;;;;;;;5114451;28;20204;-66
2022/01/15 08:56:52;;;;;;;76.90;17.05;;;;;;;;;;5115069;28;20296;-66
2022/01/15 08:59:19;;;;;;;79.80;18.23;;;;;;;;;;5114842;28;20212;-66
2022/01/15 09:01:48;;;;;;;80.82;17.83;;;;;;;;;;5115003;28;20228;-66
2022/01/15 09:04:16;;;;;;;91.28;18.75;;;;;;;;;;5115045;28;20204;-66
2022/01/15 09:06:43;;;;;;;87.10;19.73;;;;;;;;;;5114304;28;20658;-66
2022/01/15 09:09:11;;;;;;;83.63;21.38;;;;;;;;;;5104505;28;20606;-66
2022/01/15 09:11:38;;;;;;;87.20;20.05;;;;;;;;;;5094481;28;20231;-66
2022/01/15 09:14:06;;;;;;;81.95;18.80;;;;;;;;;;5094079;28;20691;-66
2022/01/15 09:16:33;;;;;;;82.28;18.15;;;;;;;;;;5094296;28;20205;-66
2022/01/15 09:19:00;;;;;;;80.68;17.67;;;;;;;;;;5093837;28;20697;-66
2022/01/15 09:21:27;;;;;;;78.40;16.98;;;;;;;;;;5093793;28;20227;-66
2022/01/15 09:23:54;;;;;;;85.60;20.10;;;;;;;;;;5094074;28;20204;-66
2022/01/15 09:26:44;;;;;;;78.80;17.25;;;;;;;;;;5093388;28;20228;-66
2022/01/15 09:31:55;;;;;;;77.28;16.15;;;;;;;;;;5093670;28;20216;-66
2022/01/15 09:34:23;;;;;;;80.93;15.88;;;;;;;;;;5093987;28;20205;-66
2022/01/15 09:36:50;;;;;;;82.25;18.08;;;;;;;;;;5093890;28;20292;-66
2022/01/15 09:39:18;;;;;;;80.70;15.68;;;;;;;;;;5093238;28;20300;-66
2022/01/15 09:41:48;;;;;;;80.18;19.55;;;;;;;;;;5092450;28;20720;-66
2022/01/15 09:44:15;;;;;;;78.22;17.15;;;;;;;;;;5093622;28;20209;-66
2022/01/15 09:46:43;;;;;;;81.22;17.02;;;;;;;;;;5093664;28;20319;-66
2022/01/15 09:49:11;;;;;;;75.97;17.17;;;;;;;;;;5093167;28;20290;-67
2022/01/15 09:51:39;;;;;;;83.93;18.40;;;;;;;;;;5093359;28;20225;-67
2022/01/15 09:54:06;;;;;;;81.28;18.15;;;;;;;;;;5093414;28;20576;-67
2022/01/15 09:56:33;;;;;;;82.38;19.52;;;;;;;;;;5093431;28;20713;-67
2022/01/15 09:59:02;;;;;;;84.22;20.60;;;;;;;;;;5093035;28;20205;-67
2022/01/15 10:01:30;;;;;;;79.63;18.27;;;;;;;;;;5093892;28;20237;-66
2022/01/15 10:03:57;;;;;;;86.43;20.25;;;;;;;;;;5093053;28;20208;-67
2022/01/15 10:06:24;;;;;;;85.30;18.65;;;;;;;;;;5093319;28;20217;-68
2022/01/15 10:08:59;;;;;;;83.70;20.15;;;;;;;;;;5092904;28;20213;-66
2022/01/15 10:11:43;;;;;;;83.30;19.20;;;;;;;;;;5098679;28;20723;-66
2022/01/15 10:14:27;;;;;;;82.63;17.25;;;;;;;;;;5113353;28;20729;-66
2022/01/15 10:16:56;;;;;;;78.47;16.17;;;;;;;;;;5113343;28;20201;-66
2022/01/15 10:19:30;;;;;;;77.77;16.93;;;;;;;;;;5113125;28;20446;-66
2022/01/15 10:22:08;;;;;;;78.80;16.53;;;;;;;;;;5113001;28;20465;-66
2022/01/15 10:24:36;;;;;;;73.73;15.40;;;;;;;;;;5113357;28;20945;-67
2022/01/15 10:27:23;;;;;;;76.93;16.00;;;;;;;;;;5113208;28;20572;-67
2022/01/15 10:29:53;;;;;;;73.50;15.50;;;;;;;;;;5113093;28;20533;-67
2022/01/15 10:32:20;;;;;;;71.50;14.57;;;;;;;;;;5112790;28;20970;-67
2022/01/15 10:34:47;;;;;;;72.40;14.73;;;;;;;;;;5113077;28;20442;-67
2022/01/15 10:37:15;;;;;;;72.70;15.50;;;;;;;;;;5112655;28;20438;-67
2022/01/15 10:39:54;;;;;;;74.40;15.77;;;;;;;;;;5112178;28;20448;-67
2022/01/15 10:42:23;;;;;;;70.40;14.67;;;;;;;;;;5111280;28;21053;-67
2022/01/15 10:44:50;;;;;;;74.67;16.37;;;;;;;;;;5112663;28;20453;-67
2022/01/15 10:47:19;;;;;;;72.53;14.43;;;;;;;;;;5112484;28;21102;-67
2022/01/15 10:49:47;;;;;;;71.80;15.30;;;;;;;;;;5112940;28;20551;-67
2022/01/15 10:52:17;;;;;;;72.27;14.83;;;;;;;;;;5112573;27;20472;-67
2022/01/15 10:54:54;;;;;;;70.47;15.30;;;;;;;;;;5113133;28;20544;-67
2022/01/15 10:57:23;;;;;;;71.13;15.53;;;;;;;;;;5112375;28;20441;-67
2022/01/15 10:59:57;;;;;;;72.40;15.83;;;;;;;;;;5112950;28;20545;-67
2022/01/15 11:02:26;;;;;;;72.17;16.00;;;;;;;;;;5113034;28;21020;-67
2022/01/15 11:04:53;;;;;;;71.70;15.50;;;;;;;;;;5112501;28;20452;-67
2022/01/15 11:07:20;;;;;;;73.60;16.00;;;;;;;;;;5112211;28;20481;-67
2022/01/15 11:09:48;;;;;;;71.80;14.80;;;;;;;;;;5112378;28;20437;-67
2022/01/15 11:12:16;;;;;;;71.17;15.20;;;;;;;;;;5112452;28;20474;-67
2022/01/15 11:14:43;;;;;;;69.63;14.27;;;;;;;;;;5112627;28;20819;-67
2022/01/15 11:17:10;;;;;;;72.87;15.03;;;;;;;;;;5110210;28;20533;-67
2022/01/15 11:19:39;;;;;;;73.00;15.50;;;;;;;;;;5112529;28;20632;-67
2022/01/15 11:22:06;;;;;;;73.27;15.80;;;;;;;;;;5112149;28;20462;-67
2022/01/15 11:24:33;;;;;;;74.47;16.20;;;;;;;;;;5111993;28;20831;-67
2022/01/15 11:27:01;;;;;;;74.30;15.50;;;;;;;;;;5112106;28;20482;-67
2022/01/15 11:29:28;;;;;;;72.23;15.80;;;;;;;;;;5112157;28;20485;-66
2022/01/15 11:31:56;;;;;;;73.03;15.23;;;;;;;;;;5112166;28;20848;-67
2022/01/15 11:34:24;;;;;;;74.63;17.77;;;;;;;;;;5112170;28;20939;-67
2022/01/15 11:36:53;;;;;;;75.77;16.97;;;;;;;;;;5111971;28;21008;-67
2022/01/15 11:39:21;;;;;;;75.23;16.40;;;;;;;;;;5112128;28;20457;-67
2022/01/15 11:41:52;;;;;;;70.90;15.97;;;;;;;;;;5112012;28;20545;-66
2022/01/15 11:44:20;;;;;;;71.37;15.37;;;;;;;;;;5112147;28;20453;-68
2022/01/15 11:46:48;;;;;;;76.40;17.30;;;;;;;;;;5111759;28;20949;-67
2022/01/15 11:49:28;;;;;;;74.00;16.83;;;;;;;;;;5109763;28;20534;-66
2022/01/15 11:51:57;;;;;;;74.40;16.50;;;;;;;;;;5116163;28;20497;-67
2022/01/15 11:54:25;;;;;;;75.43;17.30;;;;;;;;;;5116242;28;20452;-67
2022/01/15 11:56:52;;;;;;;76.47;17.03;;;;;;;;;;5116156;28;20492;-67
2022/01/15 11:59:47;;;;;;;76.10;15.80;;;;;;;;;;5116472;28;20545;-67
2022/01/15 12:02:26;;;;;;;73.57;16.23;;;;;;;;;;5079860;28;20482;-67
2022/01/15 12:04:53;;;;;;;76.27;18.27;;;;;;;;;;5116208;28;21013;-66
2022/01/15 12:07:22;;;;;;;75.57;18.63;;;;;;;;;;5115489;28;20867;-67
2022/01/15 12:09:50;;;;;;;78.47;19.27;;;;;;;;;;5115647;28;20529;-67
2022/01/15 12:12:40;;;;;;;77.40;17.83;;;;;;;;;;5115540;27;20878;-67
2022/01/15 12:15:09;;;;;;;76.97;20.07;;;;;;;;;;5115737;28;20933;-67
2022/01/15 12:17:37;;;;;;;74.70;17.47;;;;;;;;;;5115594;28;20564;-67
2022/01/15 12:20:06;;;;;;;74.43;17.93;;;;;;;;;;5112379;28;20448;-66
2022/01/15 12:22:39;;;;;;;80.70;21.03;;;;;;;;;;5095120;28;20495;-65
2022/01/15 12:25:07;;;;;;;84.03;22.13;;;;;;;;;;5095184;28;20458;-66
2022/01/15 12:27:34;;;;;;;73.67;18.27;;;;;;;;;;5094851;28;20443;-66
2022/01/15 12:30:06;;;;;;;76.20;16.87;;;;;;;;;;5095290;28;20442;-66
2022/01/15 12:32:35;;;;;;;77.17;16.90;;;;;;;;;;5095123;28;20466;-66
2022/01/15 12:35:02;;;;;;;73.77;17.03;;;;;;;;;;5095569;28;20955;-66
2022/01/15 12:37:30;;;;;;;75.80;17.43;;;;;;;;;;5094580;28;21074;-66
2022/01/15 12:40:02;;;;;;;75.30;17.77;;;;;;;;;;5095088;28;20965;-66
2022/01/15 12:42:33;;;;;;;74.40;17.10;;;;;;;;;;5094927;28;20478;-66
2022/01/15 12:45:00;;;;;;;72.47;16.90;;;;;;;;;;5094853;28;20447;-66
2022/01/15 12:47:42;;;;;;;72.47;16.27;;;;;;;;;;5094489;28;20439;-66
2022/01/15 12:50:09;;;;;;;73.37;16.30;;;;;;;;;;5094763;28;20447;-66
2022/01/15 12:52:36;;;;;;;72.50;16.60;;;;;;;;;;5092840;28;20475;-66
2022/01/15 12:55:05;;;;;;;71.93;16.00;;;;;;;;;;5094821;28;20449;-66
2022/01/15 12:57:39;;;;;;;72.17;16.00;;;;;;;;;;5094222;28;20478;-66
2022/01/15 13:00:07;;;;;;;73.20;16.40;;;;;;;;;;5095677;28;20551;-66
2022/01/15 13:02:34;;;;;;;72.00;15.60;;;;;;;;;;5114349;28;20566;-66
2022/01/15 13:05:01;;;;;;;73.83;16.30;;;;;;;;;;5115225;28;20446;-66
2022/01/15 13:07:28;;;;;;;73.30;14.40;;;;;;;;;;5114723;27;20889;-66
2022/01/15 13:09:55;;;;;;;74.70;15.77;;;;;;;;;;5114791;28;20449;-66
2022/01/15 13:12:24;;;;;;;74.33;15.93;;;;;;;;;;5114590;28;20545;-66
2022/01/15 13:14:51;;;;;;;71.17;16.20;;;;;;;;;;5114677;28;20871;-66
2022/01/15 13:17:22;;;;;;;76.07;17.73;;;;;;;;;;5114272;28;21084;-66
2022/01/15 13:19:49;;;;;;;75.87;17.93;;;;;;;;;;5114991;28;20448;-66
2022/01/15 13:22:20;;;;;;;73.90;16.73;;;;;;;;;;5113792;28;20557;-66
2022/01/15 13:24:47;;;;;;;73.40;16.87;;;;;;;;;;5094058;28;20458;-66
2022/01/15 13:27:14;;;;;;;77.00;18.30;;;;;;;;;;5093735;28;20530;-66
2022/01/15 13:29:43;;;;;;;74.80;16.13;;;;;;;;;;5094181;28;20884;-66
2022/01/15 13:32:10;;;;;;;76.30;17.90;;;;;;;;;;5094111;28;20545;-66
2022/01/15 13:34:37;;;;;;;76.63;17.97;;;;;;;;;;5094012;28;20439;-66
2022/01/15 13:37:08;;;;;;;76.40;18.60;;;;;;;;;;5093919;28;20850;-67
2022/01/15 13:39:35;;;;;;;78.40;18.20;;;;;;;;;;5094328;28;20457;-67
2022/01/15 13:42:02;;;;;;;75.40;17.67;;;;;;;;;;5093649;28;20550;-67
2022/01/15 13:44:32;;;;;;;76.47;17.40;;;;;;;;;;5094058;28;20443;-67
2022/01/15 13:47:07;;;;;;;75.70;16.40;;;;;;;;;;5093784;28;20458;-67
2022/01/15 13:53:05;;;;;;;77.47;17.30;;;;;;;;;;5093575;28;20442;-67
2022/01/15 13:55:12;;;;;;;79.40;18.57;;;;;;;;;;5095899;28;20438;-67
2022/01/15 13:57:40;;;;;;;83.03;20.00;;;;;;;;;;5113874;28;20478;-67
2022/01/15 14:00:08;;;;;;;82.37;19.70;;;;;;;;;;5113918;28;20533;-67
2022/01/15 14:02:37;;;;;;;79.73;20.67;;;;;;;;;;5113951;28;20553;-67
2022/01/15 14:05:11;;;;;;;83.23;20.43;;;;;;;;;;5114065;28;20541;-67
2022/01/15 14:07:39;;;;;;;81.53;20.50;;;;;;;;;;5120735;28;20454;-67
2022/01/15 14:10:09;;;;;;;82.70;19.70;;;;;;;;;;5128371;28;20449;-67
2022/01/15 14:12:36;;;;;;;83.67;19.23;;;;;;;;;;5127021;28;20473;-67
2022/01/15 14:15:10;;;;;;;83.50;20.23;;;;;;;;;;5127646;28;20478;-66
2022/01/15 14:17:42;;;;;;;85.53;19.47;;;;;;;;;;5121606;28;20480;-66
2022/01/15 14:20:18;;;;;;;82.07;19.87;;;;;;;;;;5122014;28;20942;-66
2022/01/15 14:22:45;;;;;;;84.17;21.07;;;;;;;;;;5123251;28;20494;-66
2022/01/15 14:25:17;;;;;;;89.63;20.07;;;;;;;;;;5125594;28;20446;-67
2022/01/15 14:27:45;;;;;;;89.40;22.07;;;;;;;;;;5114042;28;20489;-67
2022/01/15 14:30:12;;;;;;;92.03;23.48;;;;;;;;;;5113505;28;20490;-66
2022/01/15 14:32:41;;;;;;;90.47;23.40;;;;;;;;;;5113176;28;20307;-67
2022/01/15 14:35:09;;;;;;;89.05;23.58;;;;;;;;;;5113000;28;20533;-67
2022/01/15 14:37:36;;;;;;;88.90;22.50;;;;;;;;;;5112753;28;20307;-67
2022/01/15 14:40:03;;;;;;;89.97;21.65;;;;;;;;;;5113293;28;20207;-67
2022/01/15 14:42:30;;;;;;;92.03;22.58;;;;;;;;;;5112789;28;20316;-66
2022/01/15 14:44:58;;;;;;;90.65;22.95;;;;;;;;;;5113164;28;20302;-67